createdAt,value
2023-04-02T00:00:01.900Z,1.57
2023-04-02T00:01:03.708Z,2.13
2023-04-02T00:02:05.600Z,1.69
2023-04-02T00:03:07.584Z,1.87
2023-04-02T00:04:09.564Z,1.59
2023-04-02T00:05:11.424Z,1.23
2023-04-02T00:06:13.238Z,1.68
2023-04-02T00:07:15.032Z,1.35
2023-04-02T00:08:16.888Z,1.44
2023-04-02T00:09:18.751Z,1.55
2023-04-02T00:10:20.696Z,1.31
2023-04-02T00:11:22.504Z,1.48
2023-04-02T00:12:24.309Z,1.63
2023-04-02T00:13:26.224Z,1.61
2023-04-02T00:14:28.022Z,1.60
2023-04-02T00:15:29.833Z,1.46
2023-04-02T00:16:31.721Z,1.58
2023-04-02T00:17:33.620Z,1.76
2023-04-02T00:18:35.486Z,1.47
2023-04-02T00:19:37.287Z,1.87
2023-04-02T00:20:39.305Z,1.78
2023-04-02T00:21:41.118Z,1.66
2023-04-02T00:22:42.940Z,1.85
2023-04-02T00:23:44.785Z,1.39
2023-04-02T00:24:46.607Z,1.77
2023-04-02T00:25:48.408Z,1.47
2023-04-02T00:26:50.216Z,1.66
2023-04-02T00:27:52.040Z,1.71
2023-04-02T00:28:53.934Z,2.01
2023-04-02T00:29:55.711Z,1.96
2023-04-02T00:30:57.518Z,1.59
2023-04-02T00:31:59.402Z,1.36
2023-04-02T00:33:01.272Z,2.00
2023-04-02T00:34:03.110Z,1.27
2023-04-02T00:35:04.932Z,1.44
2023-04-02T00:36:06.880Z,1.98
2023-04-02T00:37:08.688Z,1.61
2023-04-02T00:38:10.481Z,1.70
2023-04-02T00:39:12.351Z,1.21
2023-04-02T00:40:15.688Z,1.64
2023-04-02T00:41:17.505Z,1.33
2023-04-02T00:42:19.304Z,1.48
2023-04-02T00:43:21.114Z,1.57
2023-04-02T00:44:22.957Z,1.53
2023-04-02T00:45:24.868Z,1.53
2023-04-02T00:46:26.764Z,1.51
2023-04-02T00:47:28.647Z,1.33
2023-04-02T00:48:30.414Z,1.69
2023-04-02T00:49:32.267Z,1.38
2023-04-02T00:50:34.068Z,1.41
2023-04-02T00:51:35.980Z,1.49
2023-04-02T00:52:37.763Z,1.43
2023-04-02T00:53:39.562Z,1.20
2023-04-02T00:54:41.435Z,1.36
2023-04-02T00:55:43.276Z,1.47
2023-04-02T00:56:45.079Z,1.14
2023-04-02T00:57:46.894Z,1.63
2023-04-02T00:58:48.711Z,1.32
2023-04-02T00:59:50.532Z,1.30
2023-04-02T01:00:52.330Z,1.45
2023-04-02T01:01:54.144Z,1.29
2023-04-02T01:02:56.178Z,1.19
2023-04-02T01:03:58.041Z,1.54
2023-04-02T01:04:59.987Z,1.49
2023-04-02T01:06:02.196Z,1.57
2023-04-02T01:07:03.998Z,1.57
2023-04-02T01:08:05.798Z,1.40
2023-04-02T01:09:07.600Z,1.37
2023-04-02T01:10:10.480Z,1.93
2023-04-02T01:11:12.409Z,1.22
2023-04-02T01:12:14.176Z,1.50
2023-04-02T01:13:15.986Z,1.48
2023-04-02T01:14:17.795Z,1.31
2023-04-02T01:15:19.636Z,2.48
2023-04-02T01:16:21.629Z,1.18
2023-04-02T01:17:23.519Z,1.33
2023-04-02T01:18:25.278Z,1.38
2023-04-02T01:19:27.079Z,1.20
2023-04-02T01:20:28.916Z,1.51
2023-04-02T01:21:30.767Z,2.28
2023-04-02T01:22:32.573Z,1.43
2023-04-02T01:23:34.381Z,1.13
2023-04-02T01:24:36.171Z,1.51
2023-04-02T01:25:38.049Z,1.54
2023-04-02T01:26:39.848Z,1.06
2023-04-02T01:27:41.641Z,1.56
2023-04-02T01:28:43.426Z,1.13
2023-04-02T01:29:45.222Z,1.62
2023-04-02T01:30:47.075Z,1.39
2023-04-02T01:31:48.995Z,1.30
2023-04-02T01:32:51.015Z,1.21
2023-04-02T01:33:52.791Z,1.69
2023-04-02T01:34:54.599Z,1.29
2023-04-02T01:35:56.461Z,1.34
2023-04-02T01:36:58.254Z,1.39
2023-04-02T01:38:00.075Z,1.79
2023-04-02T01:39:01.870Z,1.59
2023-04-02T01:40:03.685Z,1.61
2023-04-02T01:41:05.533Z,1.51
2023-04-02T01:42:07.326Z,1.37
2023-04-02T01:43:09.143Z,1.15
2023-04-02T01:44:10.947Z,1.33
2023-04-02T01:45:15.773Z,1.41
2023-04-02T01:46:17.934Z,1.61
2023-04-02T01:47:19.787Z,1.55
2023-04-02T01:48:21.585Z,0.96
2023-04-02T01:49:23.382Z,1.36
2023-04-02T01:50:25.306Z,1.23
2023-04-02T01:51:27.244Z,1.37
2023-04-02T01:52:29.038Z,1.43
2023-04-02T01:53:30.863Z,1.35
2023-04-02T01:54:32.655Z,1.66
2023-04-02T01:55:34.587Z,1.50
2023-04-02T01:56:36.707Z,1.36
2023-04-02T01:57:38.500Z,1.03
2023-04-02T01:58:40.308Z,1.15
2023-04-02T01:59:42.121Z,1.13
2023-04-02T02:00:44.084Z,1.33
2023-04-02T02:01:45.891Z,1.26
2023-04-02T02:02:47.691Z,1.03
2023-04-02T02:03:49.495Z,1.13
2023-04-02T02:04:51.388Z,1.03
2023-04-02T02:05:53.208Z,0.92
2023-04-02T02:06:55.025Z,1.43
2023-04-02T02:07:56.852Z,1.27
2023-04-02T02:08:58.641Z,1.54
2023-04-02T02:10:00.697Z,0.97
2023-04-02T02:11:02.511Z,1.08
2023-04-02T02:12:04.368Z,1.11
2023-04-02T02:13:06.222Z,1.31
2023-04-02T02:14:08.031Z,1.57
2023-04-02T02:15:09.841Z,0.99
2023-04-02T02:16:12.496Z,1.16
2023-04-02T02:17:14.344Z,1.14
2023-04-02T02:18:16.149Z,1.25
2023-04-02T02:19:17.949Z,1.66
2023-04-02T02:20:19.756Z,1.29
2023-04-02T02:21:21.572Z,1.13
2023-04-02T02:22:23.400Z,1.13
2023-04-02T02:23:25.206Z,1.10
2023-04-02T02:24:27.046Z,1.59
2023-04-02T02:25:28.836Z,1.17
2023-04-02T02:26:30.648Z,1.07
2023-04-02T02:27:32.395Z,1.14
2023-04-02T02:28:34.184Z,1.06
2023-04-02T02:29:35.981Z,1.06
2023-04-02T02:30:37.890Z,1.53
2023-04-02T02:31:39.732Z,1.26
2023-04-02T02:32:41.606Z,2.13
2023-04-02T02:33:43.442Z,1.47
2023-04-02T02:34:45.234Z,1.03
2023-04-02T02:35:47.065Z,1.82
2023-04-02T02:36:48.857Z,2.54
2023-04-02T02:37:50.692Z,1.50
2023-04-02T02:38:54.239Z,1.29
2023-04-02T02:39:56.112Z,1.08
2023-04-02T02:40:57.906Z,1.17
2023-04-02T02:41:59.718Z,1.09
2023-04-02T02:43:01.581Z,0.96
2023-04-02T02:44:03.283Z,1.16
2023-04-02T02:45:04.975Z,1.72
2023-04-02T02:46:07.220Z,1.17
2023-04-02T02:47:08.969Z,1.41
2023-04-02T02:48:10.816Z,1.05
2023-04-02T02:49:12.615Z,1.19
2023-04-02T02:50:14.452Z,1.55
2023-04-02T02:51:16.231Z,1.80
2023-04-02T02:52:18.034Z,1.59
2023-04-02T02:53:19.880Z,1.38
2023-04-02T02:54:21.700Z,1.34
2023-04-02T02:55:23.492Z,1.20
2023-04-02T02:56:25.303Z,1.26
2023-04-02T02:57:27.147Z,1.28
2023-04-02T02:58:28.947Z,1.13
2023-04-02T02:59:30.744Z,1.19
2023-04-02T03:00:32.560Z,1.13
2023-04-02T03:01:34.377Z,1.01
2023-04-02T03:02:36.292Z,1.07
2023-04-02T03:03:38.328Z,1.41
2023-04-02T03:04:40.218Z,1.18
2023-04-02T03:05:42.020Z,1.52
2023-04-02T03:06:43.923Z,1.10
2023-04-02T03:07:45.728Z,1.23
2023-04-02T03:08:47.597Z,1.11
2023-04-02T03:09:49.398Z,0.94
2023-04-02T03:10:51.207Z,1.24
2023-04-02T03:11:53.022Z,1.15
2023-04-02T03:12:54.810Z,1.19
2023-04-02T03:13:56.665Z,1.19
2023-04-02T03:14:58.454Z,1.19
2023-04-02T03:16:00.274Z,1.33
2023-04-02T03:17:02.062Z,1.09
2023-04-02T03:18:03.991Z,1.23
2023-04-02T03:19:05.811Z,1.27
2023-04-02T03:20:07.709Z,0.89
2023-04-02T03:21:09.952Z,0.98
2023-04-02T03:22:11.776Z,1.31
2023-04-02T03:23:13.572Z,1.43
2023-04-02T03:24:15.429Z,1.17
2023-04-02T03:25:17.252Z,1.41
2023-04-02T03:26:19.061Z,1.73
2023-04-02T03:27:20.860Z,1.87
2023-04-02T03:28:22.684Z,1.09
2023-04-02T03:29:24.539Z,1.20
2023-04-02T03:30:26.451Z,1.28
2023-04-02T03:31:28.252Z,1.14
2023-04-02T03:32:30.205Z,1.17
2023-04-02T03:33:32.068Z,1.74
2023-04-02T03:34:33.924Z,1.18
2023-04-02T03:35:36.037Z,1.41
2023-04-02T03:36:38.138Z,1.29
2023-04-02T03:37:39.940Z,1.36
2023-04-02T03:38:41.758Z,1.80
2023-04-02T03:39:43.643Z,1.59
2023-04-02T03:40:45.644Z,1.39
2023-04-02T03:41:47.474Z,1.50
2023-04-02T03:42:49.283Z,1.35
2023-04-02T03:43:51.071Z,1.28
2023-04-02T03:44:52.937Z,1.48
2023-04-02T03:45:54.735Z,1.47
2023-04-02T03:46:56.543Z,1.26
2023-04-02T03:47:58.432Z,1.50
2023-04-02T03:49:00.258Z,1.33
2023-04-02T03:50:02.124Z,1.71
2023-04-02T03:51:03.941Z,1.64
2023-04-02T03:52:05.749Z,1.81
2023-04-02T03:53:07.446Z,1.60
2023-04-02T03:54:09.245Z,1.33
2023-04-02T03:55:11.115Z,1.29
2023-04-02T03:56:13.523Z,1.29
2023-04-02T03:57:15.356Z,1.33
2023-04-02T03:58:17.254Z,1.62
2023-04-02T03:59:19.035Z,1.81
2023-04-02T04:00:20.988Z,1.30
2023-04-02T04:01:22.793Z,1.51
2023-04-02T04:02:24.675Z,1.28
2023-04-02T04:03:26.499Z,1.42
2023-04-02T04:04:28.395Z,1.39
2023-04-02T04:05:30.280Z,1.53
2023-04-02T04:06:32.200Z,1.58
2023-04-02T04:07:34.008Z,1.51
2023-04-02T04:08:35.828Z,2.23
2023-04-02T04:09:37.667Z,1.51
2023-04-02T04:10:39.484Z,1.73
2023-04-02T04:11:41.299Z,1.61
2023-04-02T04:12:43.081Z,1.73
2023-04-02T04:13:44.884Z,1.85
2023-04-02T04:14:46.693Z,1.88
2023-04-02T04:15:48.556Z,1.79
2023-04-02T04:16:50.362Z,1.79
2023-04-02T04:17:52.188Z,1.74
2023-04-02T04:18:53.982Z,2.05
2023-04-02T04:19:55.795Z,2.09
2023-04-02T04:20:57.648Z,1.71
2023-04-02T04:21:59.447Z,1.98
2023-04-02T04:23:01.255Z,1.99
2023-04-02T04:24:03.096Z,1.42
2023-04-02T04:25:04.908Z,1.84
2023-04-02T04:26:07.072Z,1.76
2023-04-02T04:27:08.885Z,1.49
2023-04-02T04:28:10.716Z,1.44
2023-04-02T04:29:12.575Z,1.74
2023-04-02T04:30:14.385Z,1.38
2023-04-02T04:31:16.237Z,1.40
2023-04-02T04:32:18.208Z,1.96
2023-04-02T04:33:20.148Z,1.81
2023-04-02T04:34:21.970Z,1.69
2023-04-02T04:35:23.797Z,1.51
2023-04-02T04:36:25.636Z,1.71
2023-04-02T04:37:27.440Z,1.29
2023-04-02T04:38:29.280Z,1.75
2023-04-02T04:39:31.100Z,1.99
2023-04-02T04:40:32.924Z,1.86
2023-04-02T04:41:34.774Z,1.68
2023-04-02T04:42:36.579Z,1.51
2023-04-02T04:43:38.381Z,1.45
2023-04-02T04:44:40.204Z,1.86
2023-04-02T04:45:42.043Z,1.62
2023-04-02T04:46:44.064Z,1.61
2023-04-02T04:47:45.891Z,1.69
2023-04-02T04:48:47.691Z,1.77
2023-04-02T04:49:49.495Z,3.16
2023-04-02T04:50:51.311Z,1.79
2023-04-02T04:51:53.138Z,1.79
2023-04-02T04:52:54.942Z,2.43
2023-04-02T04:53:56.755Z,1.77
2023-04-02T04:54:58.561Z,3.65
2023-04-02T04:56:12.507Z,2.06
2023-04-02T04:57:04.082Z,2.59
2023-04-02T04:58:05.845Z,2.45
2023-04-02T04:59:07.653Z,5.03
2023-04-02T05:00:09.757Z,2.77
2023-04-02T05:01:11.596Z,2.23
2023-04-02T05:02:13.546Z,2.23
2023-04-02T05:03:15.434Z,2.17
2023-04-02T05:04:17.266Z,1.78
2023-04-02T05:05:19.158Z,2.05
2023-04-02T05:06:20.966Z,1.60
2023-04-02T05:07:22.815Z,1.83
2023-04-02T05:08:24.615Z,1.99
2023-04-02T05:09:26.422Z,3.15
2023-04-02T05:10:28.243Z,3.75
2023-04-02T05:11:30.054Z,3.68
2023-04-02T05:12:31.926Z,1.79
2023-04-02T05:13:33.740Z,2.06
2023-04-02T05:14:35.572Z,1.85
2023-04-02T05:15:37.502Z,1.57
2023-04-02T05:16:39.524Z,1.90
2023-04-02T05:17:41.432Z,1.79
2023-04-02T05:18:43.236Z,1.85
2023-04-02T05:19:45.044Z,2.02
2023-04-02T05:20:46.843Z,1.80
2023-04-02T05:21:48.663Z,1.68
2023-04-02T05:22:50.495Z,2.02
2023-04-02T05:23:52.319Z,3.37
2023-04-02T05:24:54.118Z,2.54
2023-04-02T05:25:55.922Z,3.58
2023-04-02T05:26:57.739Z,3.75
2023-04-02T05:27:59.602Z,2.55
2023-04-02T05:29:01.399Z,1.70
2023-04-02T05:30:03.196Z,1.65
2023-04-02T05:31:05.012Z,1.86
2023-04-02T05:32:06.797Z,1.77
2023-04-02T05:33:08.712Z,2.36
2023-04-02T05:34:10.471Z,2.65
2023-04-02T05:35:12.267Z,2.55
2023-04-02T05:36:14.199Z,3.11
2023-04-02T05:37:15.973Z,3.53
2023-04-02T05:38:17.823Z,3.44
2023-04-02T05:39:19.622Z,3.10
2023-04-02T05:40:21.422Z,2.15
2023-04-02T05:41:23.218Z,1.85
2023-04-02T05:42:25.033Z,2.51
2023-04-02T05:43:26.887Z,2.93
2023-04-02T05:44:28.688Z,3.12
2023-04-02T05:45:30.487Z,2.37
2023-04-02T05:46:32.339Z,2.22
2023-04-02T05:47:34.135Z,2.17
2023-04-02T05:48:35.995Z,1.73
2023-04-02T05:49:37.754Z,1.50
2023-04-02T05:50:39.554Z,1.71
2023-04-02T05:51:41.267Z,1.58
2023-04-02T05:52:43.109Z,1.73
2023-04-02T05:53:44.953Z,2.22
2023-04-02T05:54:46.721Z,2.49
2023-04-02T05:55:48.526Z,2.37
2023-04-02T05:56:50.367Z,1.84
2023-04-02T05:58:13.505Z,1.89
2023-04-02T05:58:55.918Z,2.05
2023-04-02T05:59:57.737Z,1.64
2023-04-02T06:00:59.595Z,1.48
2023-04-02T06:02:01.467Z,1.62
2023-04-02T06:03:03.412Z,1.42
2023-04-02T06:04:05.292Z,1.49
2023-04-02T06:05:07.132Z,1.53
2023-04-02T06:06:09.234Z,1.51
2023-04-02T06:07:11.027Z,1.48
2023-04-02T06:08:12.830Z,1.49
2023-04-02T06:09:14.672Z,2.49
2023-04-02T06:10:16.777Z,5.37
2023-04-02T06:11:18.642Z,3.01
2023-04-02T06:12:20.494Z,1.97
2023-04-02T06:13:22.404Z,1.75
2023-04-02T06:14:24.244Z,2.01
2023-04-02T06:15:26.056Z,6.77
2023-04-02T06:16:27.898Z,6.16
2023-04-02T06:17:29.781Z,1.95
2023-04-02T06:18:31.582Z,1.61
2023-04-02T06:19:33.418Z,1.36
2023-04-02T06:20:35.226Z,1.36
2023-04-02T06:21:37.016Z,1.47
2023-04-02T06:22:38.887Z,1.13
2023-04-02T06:23:40.738Z,1.10
2023-04-02T06:24:42.583Z,1.42
2023-04-02T06:25:44.373Z,1.22
2023-04-02T06:26:46.182Z,1.17
2023-04-02T06:27:47.995Z,1.95
2023-04-02T06:28:50.838Z,1.36
2023-04-02T06:29:52.690Z,1.82
2023-04-02T06:30:54.537Z,3.56
2023-04-02T06:31:56.190Z,3.54
2023-04-02T06:32:58.019Z,4.41
2023-04-02T06:33:59.789Z,4.53
2023-04-02T06:35:01.653Z,4.57
2023-04-02T06:36:03.455Z,2.88
2023-04-02T06:37:05.281Z,2.68
2023-04-02T06:38:07.122Z,1.91
2023-04-02T06:39:08.925Z,1.81
2023-04-02T06:40:10.853Z,2.95
2023-04-02T06:41:12.664Z,5.25
2023-04-02T06:42:14.484Z,3.05
2023-04-02T06:43:16.286Z,6.34
2023-04-02T06:44:18.126Z,3.71
2023-04-02T06:45:20.109Z,2.79
2023-04-02T06:46:21.935Z,2.75
2023-04-02T06:47:23.773Z,2.83
2023-04-02T06:48:25.572Z,4.55
2023-04-02T06:49:27.389Z,3.39
2023-04-02T06:50:29.251Z,1.98
2023-04-02T06:51:31.069Z,6.79
2023-04-02T06:52:34.977Z,5.53
2023-04-02T06:53:36.479Z,5.39
2023-04-02T06:54:38.282Z,3.39
2023-04-02T06:55:40.198Z,1.65
2023-04-02T06:56:42.051Z,2.01
2023-04-02T06:57:43.846Z,2.41
2023-04-02T06:58:45.714Z,1.71
2023-04-02T06:59:47.560Z,1.21
2023-04-02T07:00:49.369Z,1.40
2023-04-02T07:01:51.337Z,1.35
2023-04-02T07:02:53.141Z,1.15
2023-04-02T07:03:54.983Z,1.08
2023-04-02T07:04:56.827Z,1.18
2023-04-02T07:05:58.749Z,1.31
2023-04-02T07:07:00.541Z,0.93
2023-04-02T07:08:02.365Z,0.91
2023-04-02T07:09:04.187Z,0.88
2023-04-02T07:10:06.286Z,0.90
2023-04-02T07:11:08.227Z,0.80
2023-04-02T07:12:10.041Z,1.05
2023-04-02T07:13:11.829Z,0.91
2023-04-02T07:14:13.680Z,0.87
2023-04-02T07:15:15.567Z,0.90
2023-04-02T07:16:17.717Z,1.07
2023-04-02T07:17:19.749Z,0.99
2023-04-02T07:18:21.550Z,0.97
2023-04-02T07:19:23.256Z,0.99
2023-04-02T07:20:25.076Z,2.41
2023-04-02T07:21:26.903Z,2.96
2023-04-02T07:22:28.694Z,3.83
2023-04-02T07:23:30.500Z,4.25
2023-04-02T07:24:32.311Z,1.87
2023-04-02T07:25:34.402Z,2.50
2023-04-02T07:26:36.461Z,2.09
2023-04-02T07:27:38.286Z,2.54
2023-04-02T07:28:40.115Z,1.60
2023-04-02T07:29:41.924Z,1.32
2023-04-02T07:30:43.734Z,0.82
2023-04-02T07:31:45.662Z,1.01
2023-04-02T07:32:47.541Z,2.00
2023-04-02T07:33:49.316Z,2.67
2023-04-02T07:34:51.114Z,2.51
2023-04-02T07:35:52.995Z,1.79
2023-04-02T07:36:55.076Z,1.90
2023-04-02T07:37:56.876Z,1.28
2023-04-02T07:38:58.676Z,1.37
2023-04-02T07:40:00.496Z,1.84
2023-04-02T07:41:02.309Z,1.34
2023-04-02T07:42:04.168Z,1.21
2023-04-02T07:43:05.987Z,1.57
2023-04-02T07:44:07.800Z,1.29
2023-04-02T07:45:09.606Z,1.50
2023-04-02T07:46:11.455Z,0.90
2023-04-02T07:47:13.296Z,0.89
2023-04-02T07:48:17.063Z,1.49
2023-04-02T07:49:21.019Z,1.13
2023-04-02T07:50:25.257Z,1.19
2023-04-02T07:51:28.116Z,1.08
2023-04-02T07:52:29.943Z,1.19
2023-04-02T07:53:31.741Z,1.23
2023-04-02T07:54:33.577Z,1.30
2023-04-02T07:55:35.537Z,1.40
2023-04-02T07:56:37.504Z,1.20
2023-04-02T07:57:39.356Z,1.21
2023-04-02T07:58:41.174Z,1.60
2023-04-02T07:59:43.001Z,1.60
2023-04-02T08:00:44.811Z,1.57
2023-04-02T08:01:46.624Z,1.44
2023-04-02T08:02:48.552Z,1.49
2023-04-02T08:03:51.730Z,1.71
2023-04-02T08:04:53.994Z,1.78
2023-04-02T08:05:55.789Z,1.58
2023-04-02T08:06:57.601Z,1.32
2023-04-02T08:07:59.451Z,1.53
2023-04-02T08:09:01.273Z,1.42
2023-04-02T08:10:03.082Z,1.96
2023-04-02T08:11:04.931Z,1.48
2023-04-02T08:12:06.739Z,1.85
2023-04-02T08:13:08.587Z,1.75
2023-04-02T08:14:10.416Z,1.66
2023-04-02T08:15:12.246Z,1.47
2023-04-02T08:16:14.229Z,1.27
2023-04-02T08:17:16.062Z,1.45
2023-04-02T08:18:17.922Z,1.62
2023-04-02T08:19:19.738Z,1.67
2023-04-02T08:20:21.543Z,1.60
2023-04-02T08:21:23.391Z,1.71
2023-04-02T08:22:25.201Z,1.60
2023-04-02T08:23:26.922Z,1.66
2023-04-02T08:24:28.698Z,1.61
2023-04-02T08:25:30.407Z,1.89
2023-04-02T08:26:32.205Z,2.39
2023-04-02T08:27:34.033Z,1.61
2023-04-02T08:28:35.880Z,1.74
2023-04-02T08:29:37.701Z,1.62
2023-04-02T08:30:39.584Z,1.86
2023-04-02T08:31:41.443Z,1.46
2023-04-02T08:32:43.307Z,1.71
2023-04-02T08:33:45.111Z,1.59
2023-04-02T08:34:46.905Z,2.53
2023-04-02T08:35:48.788Z,1.72
2023-04-02T08:36:50.742Z,1.63
2023-04-02T08:37:52.556Z,1.47
2023-04-02T08:38:54.399Z,1.89
2023-04-02T08:39:56.217Z,1.80
2023-04-02T08:40:58.133Z,1.76
2023-04-02T08:41:59.948Z,1.71
2023-04-02T08:43:01.779Z,1.91
2023-04-02T08:44:03.646Z,1.59
2023-04-02T08:45:17.195Z,1.84
2023-04-02T08:46:09.256Z,2.21
2023-04-02T08:47:11.018Z,2.11
2023-04-02T08:48:12.830Z,2.31
2023-04-02T08:49:14.686Z,2.60
2023-04-02T08:50:16.621Z,6.22
2023-04-02T08:51:18.415Z,2.07
2023-04-02T08:52:20.242Z,2.27
2023-04-02T08:53:22.091Z,2.16
2023-04-02T08:54:23.967Z,3.09
2023-04-02T08:55:25.790Z,2.99
2023-04-02T08:56:27.673Z,2.60
2023-04-02T08:57:29.545Z,3.08
2023-04-02T08:58:31.412Z,4.34
2023-04-02T08:59:33.138Z,7.27
2023-04-02T09:00:36.795Z,7.21
2023-04-02T09:01:38.599Z,9.24
2023-04-02T09:02:40.583Z,7.60
2023-04-02T09:03:42.379Z,5.00
2023-04-02T09:04:44.245Z,10.24
2023-04-02T09:05:46.039Z,16.13
2023-04-02T09:06:47.965Z,6.59
2023-04-02T09:07:49.766Z,5.31
2023-04-02T09:08:51.570Z,7.39
2023-04-02T09:09:53.442Z,5.03
2023-04-02T09:10:55.255Z,4.72
2023-04-02T09:11:57.078Z,3.39
2023-04-02T09:12:58.887Z,4.11
2023-04-02T09:14:00.738Z,4.31
2023-04-02T09:15:02.622Z,3.96
2023-04-02T09:16:04.586Z,4.29
2023-04-02T09:17:06.430Z,4.59
2023-04-02T09:18:08.335Z,4.20
2023-04-02T09:19:10.106Z,3.71
2023-04-02T09:20:12.697Z,4.40
2023-04-02T09:21:14.529Z,4.35
2023-04-02T09:22:16.364Z,4.17
2023-04-02T09:23:18.174Z,3.54
2023-04-02T09:24:19.966Z,2.65
2023-04-02T09:25:21.962Z,2.86
2023-04-02T09:26:23.898Z,3.68
2023-04-02T09:27:25.727Z,4.42
2023-04-02T09:28:27.500Z,4.08
2023-04-02T09:29:29.326Z,4.63
2023-04-02T09:30:31.194Z,5.21
2023-04-02T09:31:33.024Z,5.45
2023-04-02T09:32:34.858Z,7.76
2023-04-02T09:33:36.725Z,8.21
2023-04-02T09:34:38.533Z,6.50
2023-04-02T09:35:40.559Z,6.19
2023-04-02T09:36:42.496Z,5.53
2023-04-02T09:37:44.298Z,5.49
2023-04-02T09:38:46.137Z,4.35
2023-04-02T09:39:47.951Z,4.15
2023-04-02T09:40:49.818Z,4.17
2023-04-02T09:42:02.818Z,3.77
2023-04-02T09:42:55.257Z,3.86
2023-04-02T09:43:57.050Z,4.09
2023-04-02T09:44:58.917Z,3.88
2023-04-02T09:46:00.770Z,3.72
2023-04-02T09:47:02.667Z,4.05
2023-04-02T09:48:04.545Z,4.16
2023-04-02T09:49:06.353Z,4.35
2023-04-02T09:50:08.430Z,4.18
2023-04-02T09:51:10.275Z,4.46
2023-04-02T09:52:12.093Z,4.21
2023-04-02T09:53:13.891Z,3.61
2023-04-02T09:54:15.706Z,3.90
2023-04-02T09:55:17.524Z,3.34
2023-04-02T09:56:19.363Z,3.98
2023-04-02T09:57:21.272Z,7.59
2023-04-02T09:58:23.162Z,4.93
2023-04-02T09:59:25.015Z,5.61
2023-04-02T10:00:41.621Z,5.21
2023-04-02T10:01:30.462Z,5.13
2023-04-02T10:02:32.228Z,5.27
2023-04-02T10:03:33.967Z,5.26
2023-04-02T10:04:36.457Z,5.26
2023-04-02T10:05:41.046Z,5.12
2023-04-02T10:06:42.072Z,4.93
2023-04-02T10:07:43.978Z,4.98
2023-04-02T10:08:45.761Z,4.91
2023-04-02T10:09:47.577Z,5.19
2023-04-02T10:10:49.519Z,3.87
2023-04-02T10:11:51.377Z,2.77
2023-04-02T10:12:53.175Z,2.97
2023-04-02T10:13:54.975Z,3.24
2023-04-02T10:14:56.929Z,3.25
2023-04-02T10:15:58.748Z,3.64
2023-04-02T10:17:00.697Z,2.99
2023-04-02T10:18:02.758Z,3.17
2023-04-02T10:19:04.619Z,2.96
2023-04-02T10:20:06.598Z,2.89
2023-04-02T10:21:08.451Z,2.69
2023-04-02T10:22:10.323Z,2.70
2023-04-02T10:23:12.025Z,2.55
2023-04-02T10:24:13.840Z,2.47
2023-04-02T10:25:15.644Z,2.43
2023-04-02T10:26:17.870Z,2.48
2023-04-02T10:27:20.081Z,2.37
2023-04-02T10:28:21.900Z,2.82
2023-04-02T10:29:23.726Z,2.49
2023-04-02T10:30:25.528Z,2.41
2023-04-02T10:31:27.502Z,2.37
2023-04-02T10:32:29.469Z,2.90
2023-04-02T10:33:31.333Z,2.71
2023-04-02T10:34:33.157Z,2.25
2023-04-02T10:35:35.187Z,2.39
2023-04-02T10:36:37.226Z,2.73
2023-04-02T10:37:39.084Z,6.05
2023-04-02T10:38:40.905Z,6.67
2023-04-02T10:39:42.714Z,8.96
2023-04-02T10:40:44.519Z,4.57
2023-04-02T10:41:46.310Z,4.39
2023-04-02T10:42:48.188Z,3.67
2023-04-02T10:43:50.013Z,3.43
2023-04-02T10:44:51.785Z,2.71
2023-04-02T10:45:53.620Z,1.98
2023-04-02T10:46:55.393Z,1.96
2023-04-02T10:47:57.316Z,1.57
2023-04-02T10:48:59.170Z,1.76
2023-04-02T10:50:00.973Z,1.52
2023-04-02T10:51:02.856Z,1.57
2023-04-02T10:52:04.689Z,1.79
2023-04-02T10:53:06.550Z,1.56
2023-04-02T10:54:08.358Z,1.90
2023-04-02T10:55:10.160Z,1.63
2023-04-02T10:56:12.296Z,1.77
2023-04-02T10:57:14.090Z,1.83
2023-04-02T10:58:15.917Z,1.84
2023-04-02T10:59:17.738Z,2.01
2023-04-02T11:00:19.562Z,2.11
2023-04-02T11:01:21.679Z,2.13
2023-04-02T11:02:23.576Z,1.94
2023-04-02T11:03:25.511Z,2.15
2023-04-02T11:04:27.574Z,2.24
2023-04-02T11:05:29.377Z,1.88
2023-04-02T11:06:31.274Z,2.17
2023-04-02T11:07:33.070Z,1.79
2023-04-02T11:08:34.919Z,1.67
2023-04-02T11:09:36.720Z,1.60
2023-04-02T11:10:38.526Z,1.69
2023-04-02T11:11:40.314Z,1.70
2023-04-02T11:12:42.273Z,1.61
2023-04-02T11:13:44.205Z,1.81
2023-04-02T11:14:46.019Z,1.79
2023-04-02T11:15:47.876Z,1.61
2023-04-02T11:16:49.926Z,2.02
2023-04-02T11:17:51.786Z,2.11
2023-04-02T11:18:53.710Z,1.91
2023-04-02T11:19:55.509Z,1.90
2023-04-02T11:20:57.333Z,2.13
2023-04-02T11:22:00.797Z,2.37
2023-04-02T11:23:02.725Z,2.54
2023-04-02T11:24:04.572Z,2.79
2023-04-02T11:25:06.400Z,3.05
2023-04-02T11:26:08.212Z,2.30
2023-04-02T11:27:10.021Z,1.39
2023-04-02T11:28:11.825Z,1.56
2023-04-02T11:29:13.695Z,1.49
2023-04-02T11:30:15.508Z,1.77
2023-04-02T11:31:17.371Z,2.43
2023-04-02T11:32:19.179Z,2.39
2023-04-02T11:33:29.991Z,2.63
2023-04-02T11:34:24.650Z,2.04
2023-04-02T11:35:26.473Z,2.11
2023-04-02T11:36:28.272Z,2.08
2023-04-02T11:37:30.090Z,2.41
2023-04-02T11:38:31.885Z,2.33
2023-04-02T11:39:33.744Z,2.17
2023-04-02T11:40:35.562Z,1.70
2023-04-02T11:41:37.363Z,2.01
2023-04-02T11:42:39.179Z,4.68
2023-04-02T11:43:40.992Z,5.84
2023-04-02T11:44:43.156Z,2.93
2023-04-02T11:45:52.652Z,2.01
2023-04-02T11:46:48.709Z,1.72
2023-04-02T11:47:50.646Z,1.78
2023-04-02T11:48:52.501Z,1.61
2023-04-02T11:49:54.346Z,1.44
2023-04-02T11:50:56.256Z,1.60
2023-04-02T11:52:10.955Z,1.48
2023-04-02T11:53:01.783Z,1.94
2023-04-02T11:54:03.805Z,1.69
2023-04-02T11:55:05.652Z,1.41
2023-04-02T11:56:07.751Z,1.70
2023-04-02T11:57:09.637Z,1.89
2023-04-02T11:58:11.478Z,1.37
2023-04-02T11:59:13.300Z,1.48
2023-04-02T12:00:16.885Z,1.62
2023-04-02T12:01:18.848Z,1.48
2023-04-02T12:02:20.710Z,1.72
2023-04-02T12:03:22.491Z,2.46
2023-04-02T12:04:24.287Z,2.20
2023-04-02T12:05:26.189Z,1.90
2023-04-02T12:06:28.178Z,3.15
2023-04-02T12:07:29.950Z,2.71
2023-04-02T12:08:31.751Z,2.07
2023-04-02T12:09:33.568Z,2.27
2023-04-02T12:10:35.422Z,2.46
2023-04-02T12:11:37.247Z,2.45
2023-04-02T12:12:39.112Z,3.11
2023-04-02T12:13:41.165Z,2.12
2023-04-02T12:14:43.205Z,1.49
2023-04-02T12:15:45.092Z,1.61
2023-04-02T12:16:46.975Z,2.31
2023-04-02T12:17:48.795Z,2.25
2023-04-02T12:18:50.661Z,1.59
2023-04-02T12:19:52.504Z,1.88
2023-04-02T12:20:54.399Z,2.38
2023-04-02T12:21:56.261Z,1.72
2023-04-02T12:22:58.056Z,2.04
2023-04-02T12:23:59.871Z,2.14
2023-04-02T12:25:01.692Z,2.47
2023-04-02T12:26:03.509Z,2.27
2023-04-02T12:27:05.353Z,1.78
2023-04-02T12:28:07.152Z,1.89
2023-04-02T12:29:08.980Z,1.48
2023-04-02T12:30:11.025Z,2.23
2023-04-02T12:31:12.952Z,2.60
2023-04-02T12:32:14.861Z,2.58
2023-04-02T12:33:16.715Z,2.33
2023-04-02T12:34:18.646Z,2.45
2023-04-02T12:35:20.464Z,2.49
2023-04-02T12:36:22.439Z,4.09
2023-04-02T12:37:24.457Z,2.75
2023-04-02T12:38:26.272Z,1.40
2023-04-02T12:39:28.613Z,1.36
2023-04-02T12:40:30.549Z,1.42
2023-04-02T12:41:32.467Z,1.55
2023-04-02T12:42:34.281Z,1.55
2023-04-02T12:43:36.110Z,1.91
2023-04-02T12:44:37.932Z,1.48
2023-04-02T12:45:39.774Z,1.99
2023-04-02T12:46:41.784Z,1.67
2023-04-02T12:47:43.590Z,1.63
2023-04-02T12:48:45.354Z,1.98
2023-04-02T12:49:47.195Z,2.41
2023-04-02T12:50:49.033Z,2.48
2023-04-02T12:51:50.880Z,2.01
2023-04-02T12:52:52.686Z,1.95
2023-04-02T12:53:54.499Z,1.71
2023-04-02T12:54:56.311Z,1.61
2023-04-02T12:55:58.128Z,1.96
2023-04-02T12:57:00.038Z,1.70
2023-04-02T12:58:01.823Z,1.49
2023-04-02T12:59:03.650Z,1.67
2023-04-02T13:00:05.781Z,1.25
2023-04-02T13:01:07.553Z,1.55
2023-04-02T13:02:09.616Z,1.52
2023-04-02T13:03:11.642Z,1.57
2023-04-02T13:04:13.575Z,1.72
2023-04-02T13:05:15.442Z,1.37
2023-04-02T13:06:17.379Z,1.74
2023-04-02T13:07:19.232Z,1.49
2023-04-02T13:08:21.033Z,1.77
2023-04-02T13:09:22.871Z,1.65
2023-04-02T13:10:27.541Z,1.30
2023-04-02T13:11:29.380Z,1.87
2023-04-02T13:12:31.267Z,2.15
2023-04-02T13:13:33.095Z,1.76
2023-04-02T13:14:34.915Z,1.61
2023-04-02T13:15:36.725Z,1.95
2023-04-02T13:16:38.696Z,1.76
2023-04-02T13:17:40.689Z,5.81
2023-04-02T13:18:42.499Z,6.20
2023-04-02T13:19:44.308Z,5.72
2023-04-02T13:20:46.117Z,5.32
2023-04-02T13:21:47.961Z,3.21
2023-04-02T13:22:49.802Z,5.25
2023-04-02T13:23:51.640Z,4.89
2023-04-02T13:24:53.460Z,4.18
2023-04-02T13:25:55.277Z,4.69
2023-04-02T13:26:57.110Z,4.72
2023-04-02T13:27:58.970Z,4.78
2023-04-02T13:29:00.779Z,4.71
2023-04-02T13:30:02.591Z,4.81
2023-04-02T13:31:04.440Z,4.40
2023-04-02T13:32:06.233Z,4.62
2023-04-02T13:33:08.123Z,4.17
2023-04-02T13:34:09.964Z,4.78
2023-04-02T13:35:11.764Z,4.79
2023-04-02T13:36:14.496Z,5.83
2023-04-02T13:37:16.359Z,5.84
2023-04-02T13:38:18.191Z,5.74
2023-04-02T13:39:20.030Z,6.51
2023-04-02T13:40:21.812Z,7.07
2023-04-02T13:41:23.628Z,8.11
2023-04-02T13:42:25.426Z,4.44
2023-04-02T13:43:27.304Z,4.49